Time;durP1;ratioP1;P1;durP2;ratioP2;P2;SDS_P1;SDS_P2;PMS_P1;PMS_P2;Temp;Humidity;BMP_temperature;BMP_pressure;BME280_temperature;BME280_humidity;BME280_pressure;Samples;Min_cycle;Max_cycle;Signal;HPM_P1;HPM_P2
2021/03/18 00:01:42;;;;;;;8.37;3.60;;;0.80;99.10;;;;;;4423587;32;20389;-74
2021/03/18 00:04:15;;;;;;;8.73;3.50;;;0.80;99.10;;;;;;4422165;32;20185;-75
2021/03/18 00:06:48;;;;;;;8.93;3.90;;;0.80;99.40;;;;;;4409062;32;20255;-73
2021/03/18 00:09:22;;;;;;;6.93;3.30;;;0.80;99.40;;;;;;4424396;32;20206;-73
2021/03/18 00:11:51;;;;;;;7.80;3.70;;;0.80;99.60;;;;;;4424206;32;20193;-73
2021/03/18 00:14:21;;;;;;;8.00;3.90;;;0.70;99.80;;;;;;4420950;32;20173;-74
2021/03/18 00:16:48;;;;;;;5.83;3.63;;;0.70;99.90;;;;;;4426443;32;20158;-73
2021/03/18 00:19:15;;;;;;;6.57;3.47;;;0.80;99.90;;;;;;4426558;32;20142;-73
2021/03/18 00:21:46;;;;;;;5.53;3.40;;;0.80;99.90;;;;;;4426653;32;20222;-72
2021/03/18 00:24:14;;;;;;;7.07;3.40;;;0.70;99.90;;;;;;4426226;32;20197;-72
2021/03/18 00:26:40;;;;;;;6.60;3.80;;;0.70;99.90;;;;;;4426424;32;20159;-72
2021/03/18 00:29:07;;;;;;;7.83;3.60;;;0.60;99.90;;;;;;4426652;32;20240;-72
2021/03/18 00:31:52;;;;;;;5.17;3.07;;;0.60;99.90;;;;;;4414888;32;20176;-72
2021/03/18 00:34:19;;;;;;;8.53;3.90;;;0.60;99.90;;;;;;4426211;32;20151;-73
2021/03/18 00:36:45;;;;;;;7.97;3.90;;;0.60;99.90;;;;;;4426960;32;20159;-73
2021/03/18 00:39:12;;;;;;;5.80;3.50;;;0.60;99.90;;;;;;4425101;32;20150;-72
2021/03/18 00:41:39;;;;;;;6.63;3.60;;;0.60;99.90;;;;;;4426227;32;20177;-73
2021/03/18 00:44:08;;;;;;;6.87;3.50;;;0.60;99.90;;;;;;4427014;32;20163;-73
2021/03/18 00:46:34;;;;;;;5.93;3.93;;;0.50;99.90;;;;;;4427539;32;20675;-73
2021/03/18 00:49:02;;;;;;;6.53;3.30;;;0.50;99.90;;;;;;4424578;32;20593;-73
2021/03/18 00:51:29;;;;;;;6.87;3.60;;;0.50;99.90;;;;;;4424717;32;20252;-73
2021/03/18 00:53:55;;;;;;;6.40;3.50;;;0.50;99.90;;;;;;4425501;32;20210;-73
2021/03/18 00:56:23;;;;;;;8.03;3.73;;;0.50;99.90;;;;;;4424692;32;20155;-73
2021/03/18 00:58:49;;;;;;;7.10;3.80;;;0.50;99.90;;;;;;4424004;32;20223;-73
2021/03/18 01:01:22;;;;;;;6.20;3.53;;;0.40;99.90;;;;;;4424478;32;20182;-73
2021/03/18 01:03:49;;;;;;;8.23;3.67;;;0.40;99.90;;;;;;4409793;32;20221;-73
2021/03/18 01:06:20;;;;;;;5.33;3.63;;;0.30;99.90;;;;;;4425711;32;20170;-73
2021/03/18 01:08:47;;;;;;;6.93;3.80;;;0.30;99.90;;;;;;4426590;32;20143;-73
2021/03/18 01:11:23;;;;;;;6.97;4.03;;;0.30;99.90;;;;;;4425847;32;20147;-72
2021/03/18 01:13:52;;;;;;;8.00;3.60;;;0.30;99.90;;;;;;4426133;32;20162;-73
2021/03/18 01:16:22;;;;;;;7.70;4.03;;;0.30;99.90;;;;;;4426081;32;20497;-72
2021/03/18 01:18:50;;;;;;;9.23;3.73;;;0.30;99.90;;;;;;4425858;32;20177;-73
2021/03/18 01:21:19;;;;;;;8.50;4.07;;;0.30;99.90;;;;;;4426105;32;20195;-73
2021/03/18 01:23:46;;;;;;;8.30;4.10;;;0.30;99.90;;;;;;4426539;32;20139;-72
2021/03/18 01:26:13;;;;;;;6.87;4.03;;;0.30;99.90;;;;;;4425716;32;20178;-71
2021/03/18 01:28:41;;;;;;;8.07;4.23;;;0.30;99.90;;;;;;4425908;32;20210;-73
2021/03/18 01:31:09;;;;;;;7.90;4.53;;;0.20;99.90;;;;;;4412138;32;20169;-73
2021/03/18 01:33:37;;;;;;;10.17;4.63;;;0.10;99.90;;;;;;4426423;32;20150;-73
2021/03/18 01:36:07;;;;;;;8.70;4.97;;;0.20;99.90;;;;;;4426107;32;20186;-72
2021/03/18 01:38:35;;;;;;;8.53;4.53;;;0.10;99.90;;;;;;4425721;32;20162;-73
2021/03/18 01:41:04;;;;;;;8.87;4.37;;;0.10;99.90;;;;;;4425743;32;20194;-73
2021/03/18 01:43:31;;;;;;;7.90;4.57;;;0.10;99.90;;;;;;4425262;32;20143;-72
2021/03/18 01:45:58;;;;;;;8.03;4.33;;;0.10;99.90;;;;;;4425567;32;20352;-73
2021/03/18 01:48:25;;;;;;;8.37;4.37;;;0.10;99.90;;;;;;4425460;32;20409;-73
2021/03/18 01:50:52;;;;;;;8.10;4.47;;;0.10;99.90;;;;;;4425495;32;20153;-73
2021/03/18 01:53:21;;;;;;;8.87;4.37;;;0.00;99.90;;;;;;4426277;32;20166;-73
2021/03/18 01:55:49;;;;;;;6.90;4.17;;;0.00;99.90;;;;;;4425734;32;20139;-73
2021/03/18 01:58:16;;;;;;;10.23;4.27;;;0.00;99.90;;;;;;4426870;32;20146;-73
2021/03/18 02:00:48;;;;;;;9.47;4.47;;;0.00;99.90;;;;;;4425386;32;20147;-73
2021/03/18 02:03:15;;;;;;;8.70;4.60;;;0.00;99.90;;;;;;4425828;32;20174;-73
2021/03/18 02:05:43;;;;;;;7.47;4.20;;;0.00;99.90;;;;;;4411729;32;20216;-72
2021/03/18 02:08:09;;;;;;;6.57;3.93;;;-0.10;99.90;;;;;;4425591;32;20227;-73
2021/03/18 02:10:37;;;;;;;6.67;3.90;;;-0.10;99.90;;;;;;4425295;32;20147;-73
2021/03/18 02:13:10;;;;;;;8.50;3.90;;;-0.10;99.90;;;;;;4411283;32;20544;-73
2021/03/18 02:15:42;;;;;;;7.40;4.00;;;-0.10;99.90;;;;;;4426080;32;20143;-73
2021/03/18 02:18:26;;;;;;;9.67;4.27;;;-0.10;99.90;;;;;;4425472;32;20448;-73
2021/03/18 02:21:15;;;;;;;7.93;4.10;;;-0.10;99.90;;;;;;4425005;32;20470;-73
2021/03/18 02:23:45;;;;;;;8.40;4.13;;;0.00;99.90;;;;;;4425121;32;20144;-73
2021/03/18 02:26:29;;;;;;;7.47;4.30;;;-0.10;99.90;;;;;;4411161;32;20193;-72
2021/03/18 02:29:28;;;;;;;11.53;4.23;;;-0.10;99.90;;;;;;4426455;32;20160;-73
2021/03/18 02:32:35;;;;;;;7.10;4.23;;;-0.10;99.90;;;;;;4424916;32;20166;-73
2021/03/18 02:35:14;;;;;;;6.97;4.00;;;-0.10;99.90;;;;;;4425353;32;20501;-73
2021/03/18 02:37:45;;;;;;;9.87;4.60;;;-0.10;99.90;;;;;;4425128;32;20503;-72
2021/03/18 02:40:19;;;;;;;9.43;4.20;;;-0.10;99.90;;;;;;4426419;32;20146;-72
2021/03/18 02:42:53;;;;;;;6.87;4.20;;;-0.10;99.90;;;;;;4424950;32;20198;-73
2021/03/18 02:45:20;;;;;;;8.20;4.10;;;-0.10;99.90;;;;;;4424301;32;20151;-73
2021/03/18 02:47:49;;;;;;;8.00;4.10;;;-0.20;99.90;;;;;;4426007;32;20143;-73
2021/03/18 02:50:18;;;;;;;8.00;4.43;;;-0.20;99.90;;;;;;4424160;32;20150;-73
2021/03/18 02:52:47;;;;;;;7.83;3.83;;;-0.10;99.90;;;;;;4425441;32;20224;-73
2021/03/18 02:55:15;;;;;;;7.00;4.27;;;-0.10;99.90;;;;;;4424720;32;20214;-73
2021/03/18 02:57:42;;;;;;;8.77;4.67;;;-0.10;99.90;;;;;;4425999;32;20150;-73
2021/03/18 03:00:11;;;;;;;12.83;5.20;;;-0.20;99.90;;;;;;4424526;32;20497;-73
2021/03/18 03:02:39;;;;;;;9.50;5.30;;;-0.10;99.90;;;;;;4423996;32;20177;-73
2021/03/18 03:05:08;;;;;;;10.57;5.37;;;-0.10;99.90;;;;;;4424804;32;20266;-73
2021/03/18 03:07:34;;;;;;;12.57;5.87;;;-0.10;99.90;;;;;;4424552;32;20190;-72
2021/03/18 03:10:06;;;;;;;10.93;5.33;;;-0.10;99.90;;;;;;4424658;32;20142;-73
2021/03/18 03:12:34;;;;;;;9.80;5.80;;;-0.10;99.90;;;;;;4424736;32;20151;-72
2021/03/18 03:15:01;;;;;;;11.17;5.13;;;-0.10;99.90;;;;;;4424244;32;20139;-72
2021/03/18 03:17:28;;;;;;;10.80;6.03;;;0.00;99.90;;;;;;4410356;32;20162;-73
2021/03/18 03:19:59;;;;;;;8.57;5.13;;;0.00;99.90;;;;;;4424282;32;20152;-73
2021/03/18 03:22:27;;;;;;;9.17;5.10;;;-0.10;99.90;;;;;;4424473;32;20204;-73
2021/03/18 03:24:56;;;;;;;11.33;5.30;;;0.00;99.90;;;;;;4424052;32;20178;-73
2021/03/18 03:27:23;;;;;;;11.00;5.30;;;-0.10;99.90;;;;;;4425409;32;20147;-73
2021/03/18 03:29:50;;;;;;;11.60;5.60;;;-0.10;99.90;;;;;;4423807;32;20138;-73
2021/03/18 03:32:17;;;;;;;11.30;5.23;;;-0.20;99.90;;;;;;4425112;32;20142;-73
2021/03/18 03:34:45;;;;;;;14.97;5.87;;;-0.30;99.90;;;;;;4424891;32;20233;-73
2021/03/18 03:37:11;;;;;;;13.20;5.87;;;-0.40;99.90;;;;;;4424240;32;20384;-73
2021/03/18 03:39:40;;;;;;;13.00;5.77;;;-0.30;99.90;;;;;;4424743;32;20150;-73
2021/03/18 03:42:09;;;;;;;13.43;5.83;;;-0.20;99.90;;;;;;4425032;32;20192;-72
2021/03/18 03:44:39;;;;;;;13.70;5.90;;;-0.30;99.90;;;;;;4424389;32;20151;-73
2021/03/18 03:47:09;;;;;;;11.77;6.33;;;-0.40;99.90;;;;;;4425446;32;20151;-73
2021/03/18 03:49:37;;;;;;;12.77;6.57;;;-0.30;99.90;;;;;;4428109;32;20138;-73
2021/03/18 03:52:43;;;;;;;13.07;5.83;;;-0.50;99.90;;;;;;4427423;32;20193;-73
2021/03/18 03:55:20;;;;;;;12.77;5.90;;;-0.30;99.90;;;;;;4351223;33;20153;-73
2021/03/18 03:58:04;;;;;;;12.07;6.53;;;-0.40;99.90;;;;;;4349862;33;20588;-73
2021/03/18 04:00:32;;;;;;;12.63;6.53;;;-0.30;99.90;;;;;;4351190;33;20241;-73
2021/03/18 04:03:02;;;;;;;13.77;6.53;;;-0.30;99.90;;;;;;4349447;33;20156;-73
2021/03/18 04:05:30;;;;;;;15.67;6.40;;;-0.30;99.90;;;;;;4351669;33;20159;-73
2021/03/18 04:08:01;;;;;;;12.97;6.47;;;-0.20;99.90;;;;;;4349669;33;20160;-73
2021/03/18 04:10:30;;;;;;;12.60;6.43;;;-0.10;99.90;;;;;;4351076;33;20211;-73
2021/03/18 04:12:58;;;;;;;14.03;6.63;;;0.00;99.90;;;;;;4349751;33;20182;-73
2021/03/18 04:15:27;;;;;;;12.33;6.10;;;0.10;99.90;;;;;;4351117;33;20199;-73
2021/03/18 04:17:54;;;;;;;11.53;6.47;;;0.10;99.90;;;;;;4350902;33;20196;-73
2021/03/18 04:20:23;;;;;;;14.37;6.70;;;0.00;99.90;;;;;;4349462;33;20170;-73
2021/03/18 04:22:53;;;;;;;14.17;6.23;;;0.00;99.90;;;;;;4350210;33;20418;-73
2021/03/18 04:25:22;;;;;;;14.27;6.50;;;0.00;99.90;;;;;;4349068;33;20156;-73
2021/03/18 04:27:50;;;;;;;14.00;6.37;;;-0.10;99.90;;;;;;4350267;33;20169;-73
2021/03/18 04:30:19;;;;;;;13.17;6.37;;;0.10;99.90;;;;;;4376297;32;20249;-73
2021/03/18 04:32:48;;;;;;;12.40;6.30;;;0.20;99.90;;;;;;4427698;32;20347;-73
2021/03/18 04:35:17;;;;;;;18.53;6.67;;;0.30;99.90;;;;;;4426357;32;20182;-73
2021/03/18 04:37:44;;;;;;;17.73;7.27;;;0.10;99.90;;;;;;4426536;32;20192;-73
2021/03/18 04:40:13;;;;;;;14.57;7.03;;;-0.10;99.90;;;;;;4426047;32;20200;-73
2021/03/18 04:42:41;;;;;;;15.93;7.03;;;-0.10;99.90;;;;;;4427712;32;20146;-73
2021/03/18 04:45:10;;;;;;;14.80;7.10;;;-0.10;99.90;;;;;;4426438;32;20195;-73
2021/03/18 04:47:41;;;;;;;12.97;7.13;;;-0.10;99.90;;;;;;4426449;32;20468;-73
2021/03/18 04:50:12;;;;;;;16.27;7.03;;;-0.20;99.90;;;;;;4427059;32;20355;-73
2021/03/18 04:52:42;;;;;;;15.00;7.50;;;0.00;99.90;;;;;;4426445;32;20322;-73
2021/03/18 04:55:10;;;;;;;14.43;7.67;;;-0.10;99.90;;;;;;4426499;32;20345;-73
2021/03/18 04:57:42;;;;;;;17.07;8.07;;;0.00;99.90;;;;;;4426220;32;20200;-73
2021/03/18 05:00:10;;;;;;;15.27;7.70;;;0.00;99.90;;;;;;4426172;32;20173;-73
2021/03/18 05:02:40;;;;;;;14.87;7.40;;;0.10;99.90;;;;;;4426862;32;20146;-73
2021/03/18 05:05:16;;;;;;;15.40;7.73;;;0.20;99.90;;;;;;4427259;32;20144;-73
2021/03/18 05:07:45;;;;;;;16.60;8.00;;;0.20;99.90;;;;;;4427460;32;20146;-73
2021/03/18 05:10:15;;;;;;;17.07;8.20;;;0.20;99.90;;;;;;4427300;32;20143;-73
2021/03/18 05:12:43;;;;;;;17.60;9.13;;;0.20;99.90;;;;;;4427674;32;20139;-73
2021/03/18 05:15:12;;;;;;;19.47;8.80;;;0.20;99.90;;;;;;4426047;32;20147;-72
2021/03/18 05:17:39;;;;;;;20.30;9.20;;;0.10;99.90;;;;;;4427519;32;20464;-73
2021/03/18 05:20:10;;;;;;;19.40;9.43;;;0.00;99.90;;;;;;4426201;32;20401;-73
2021/03/18 05:22:38;;;;;;;19.53;9.30;;;0.00;99.90;;;;;;4426720;32;20143;-73
2021/03/18 05:25:08;;;;;;;18.43;9.07;;;0.10;99.90;;;;;;4425913;32;20167;-73
2021/03/18 05:27:38;;;;;;;19.63;9.50;;;0.10;99.90;;;;;;4412405;32;20170;-72
2021/03/18 05:30:08;;;;;;;17.87;9.47;;;0.10;99.90;;;;;;4425928;32;20290;-73
2021/03/18 05:32:35;;;;;;;19.97;9.87;;;0.10;99.90;;;;;;4427444;32;20192;-73
2021/03/18 05:35:05;;;;;;;16.17;8.93;;;0.10;99.90;;;;;;4427700;32;20147;-73
2021/03/18 05:37:31;;;;;;;18.67;9.53;;;0.20;99.90;;;;;;4425649;32;20190;-73
2021/03/18 05:39:59;;;;;;;17.97;9.53;;;0.40;99.90;;;;;;4425936;32;20186;-73
2021/03/18 05:42:25;;;;;;;17.87;9.63;;;0.50;99.90;;;;;;4425951;32;20139;-73
2021/03/18 05:44:52;;;;;;;15.63;9.47;;;0.50;99.90;;;;;;4425789;32;20166;-73
2021/03/18 05:47:19;;;;;;;14.23;8.47;;;0.50;99.90;;;;;;4425312;32;20147;-73
2021/03/18 05:49:46;;;;;;;19.47;9.20;;;0.50;99.90;;;;;;4425849;32;20139;-73
2021/03/18 05:52:13;;;;;;;16.63;9.33;;;0.60;99.90;;;;;;4425133;32;20192;-73
2021/03/18 05:54:47;;;;;;;19.27;9.70;;;0.70;99.90;;;;;;4425202;32;20455;-73
2021/03/18 05:57:15;;;;;;;19.10;10.03;;;0.90;99.90;;;;;;4427332;32;20177;-73
2021/03/18 05:59:44;;;;;;;18.27;9.73;;;1.00;99.90;;;;;;4427070;32;20163;-73
2021/03/18 06:02:10;;;;;;;19.37;9.97;;;1.00;99.90;;;;;;4425462;32;20520;-73
2021/03/18 06:04:38;;;;;;;19.67;9.73;;;1.10;99.90;;;;;;4426340;32;20161;-73
2021/03/18 06:07:06;;;;;;;19.87;9.63;;;1.20;99.90;;;;;;4425003;32;20178;-73
2021/03/18 06:09:33;;;;;;;18.57;9.77;;;1.20;99.90;;;;;;4425331;32;20143;-73
2021/03/18 06:12:00;;;;;;;18.03;9.90;;;1.30;99.90;;;;;;4425317;32;20169;-73
2021/03/18 06:14:26;;;;;;;16.73;9.07;;;1.40;99.90;;;;;;4427074;32;20165;-74
2021/03/18 06:16:54;;;;;;;14.70;8.47;;;1.40;99.90;;;;;;4425469;32;20139;-74
2021/03/18 06:19:21;;;;;;;13.53;7.87;;;1.30;99.90;;;;;;4426850;32;20155;-72
2021/03/18 06:21:53;;;;;;;14.90;7.80;;;1.40;99.90;;;;;;4425335;32;20203;-73
2021/03/18 06:24:21;;;;;;;16.13;6.93;;;1.50;99.90;;;;;;4426295;32;20353;-74
2021/03/18 06:26:48;;;;;;;17.03;7.17;;;1.60;99.90;;;;;;4425078;32;20548;-76
2021/03/18 06:29:28;;;;;;;12.57;6.77;;;1.70;99.90;;;;;;4424913;32;20217;-74
2021/03/18 06:31:55;;;;;;;13.40;6.57;;;1.70;99.90;;;;;;4425362;32;20236;-73
2021/03/18 06:34:37;;;;;;;14.27;6.40;;;1.80;99.90;;;;;;4411223;32;20444;-73
2021/03/18 06:37:23;;;;;;;11.00;5.67;;;1.80;99.90;;;;;;4424952;32;20175;-73
2021/03/18 06:39:50;;;;;;;12.30;5.80;;;2.00;99.90;;;;;;4425014;32;20378;-73
2021/03/18 06:42:16;;;;;;;10.73;5.50;;;2.20;99.90;;;;;;4424879;32;20159;-74
2021/03/18 06:44:44;;;;;;;8.17;4.70;;;2.20;99.90;;;;;;4424883;32;20196;-73
2021/03/18 06:47:11;;;;;;;9.07;4.90;;;2.40;99.90;;;;;;4425331;32;20209;-73
2021/03/18 06:49:37;;;;;;;9.07;4.73;;;2.70;99.90;;;;;;4424731;32;20181;-73
2021/03/18 06:52:04;;;;;;;9.63;4.37;;;2.80;99.90;;;;;;4424626;32;20543;-73
2021/03/18 06:54:39;;;;;;;7.80;4.33;;;2.90;99.90;;;;;;4425209;32;20196;-75
2021/03/18 06:57:06;;;;;;;7.80;4.43;;;2.60;99.90;;;;;;4426009;32;20209;-74
2021/03/18 06:59:34;;;;;;;7.27;4.20;;;2.20;99.90;;;;;;4425430;32;20147;-74
2021/03/18 07:02:02;;;;;;;8.47;4.60;;;2.10;99.90;;;;;;4424205;32;20147;-74
2021/03/18 07:04:37;;;;;;;7.33;4.23;;;2.10;99.90;;;;;;4425938;32;20139;-74
2021/03/18 07:07:04;;;;;;;7.10;4.20;;;2.20;99.90;;;;;;4424942;32;20460;-74
2021/03/18 07:09:32;;;;;;;6.13;3.93;;;2.10;99.90;;;;;;4426155;32;20218;-74
2021/03/18 07:12:09;;;;;;;7.47;4.33;;;2.00;99.90;;;;;;4424576;32;20147;-74
2021/03/18 07:14:42;;;;;;;6.27;4.23;;;2.10;99.90;;;;;;4424641;32;20147;-74
2021/03/18 07:17:15;;;;;;;10.37;4.03;;;2.20;99.90;;;;;;4424278;32;20145;-74
2021/03/18 07:19:42;;;;;;;7.47;4.00;;;2.20;99.90;;;;;;4425111;32;20134;-75
2021/03/18 07:22:16;;;;;;;6.23;4.20;;;2.30;99.90;;;;;;4423989;32;20410;-75
2021/03/18 07:24:43;;;;;;;9.70;4.60;;;2.30;99.90;;;;;;4424775;32;20225;-74
2021/03/18 07:27:16;;;;;;;6.83;3.90;;;2.50;99.90;;;;;;4425428;32;20178;-72
2021/03/18 07:29:44;;;;;;;7.23;4.20;;;2.60;99.90;;;;;;4425226;32;20537;-74
2021/03/18 07:32:12;;;;;;;6.97;4.17;;;2.80;99.90;;;;;;4424273;32;20495;-72
2021/03/18 07:34:40;;;;;;;9.03;4.30;;;2.80;98.60;;;;;;4424059;32;20143;-73
2021/03/18 07:37:08;;;;;;;7.60;4.40;;;2.80;98.00;;;;;;4424416;32;20178;-75
2021/03/18 07:39:37;;;;;;;8.57;4.40;;;2.80;97.80;;;;;;4424087;32;20219;-72
2021/03/18 07:42:04;;;;;;;8.10;4.50;;;2.90;98.90;;;;;;4424835;32;20163;-73
2021/03/18 07:44:32;;;;;;;7.93;4.57;;;2.90;97.70;;;;;;4424192;32;20139;-74
2021/03/18 07:47:00;;;;;;;7.77;3.80;;;2.80;97.10;;;;;;4424264;32;20152;-73
2021/03/18 07:49:30;;;;;;;6.13;3.93;;;2.70;96.30;;;;;;4424468;32;20194;-74
2021/03/18 07:52:01;;;;;;;5.20;3.47;;;2.60;95.90;;;;;;4425746;32;20151;-73
2021/03/18 07:54:28;;;;;;;6.40;3.50;;;2.40;95.00;;;;;;4423925;32;20432;-73
2021/03/18 07:56:56;;;;;;;7.03;3.40;;;2.50;94.90;;;;;;4424153;32;20392;-74
2021/03/18 07:59:29;;;;;;;6.47;3.53;;;2.40;94.10;;;;;;4424163;32;20189;-73
2021/03/18 08:02:22;;;;;;;4.63;2.83;;;2.50;94.20;;;;;;4425678;32;20190;-71
2021/03/18 08:04:50;;;;;;;5.73;3.00;;;2.50;92.60;;;;;;4416858;32;20175;-71
2021/03/18 08:07:39;;;;;;;3.70;2.70;;;2.50;92.50;;;;;;4414191;32;20392;-71
2021/03/18 08:10:08;;;;;;;3.97;2.90;;;2.40;91.30;;;;;;4425745;32;20143;-70
2021/03/18 08:12:54;;;;;;;7.93;4.17;;;2.50;91.60;;;;;;4424363;32;20182;-70
2021/03/18 08:15:21;;;;;;;5.50;3.70;;;2.50;91.60;;;;;;4425496;32;20457;-71
2021/03/18 08:17:47;;;;;;;6.90;4.30;;;2.20;92.70;;;;;;4424028;32;20177;-70
2021/03/18 08:20:37;;;;;;;10.43;3.83;;;2.40;93.40;;;;;;4422498;32;20187;-70
2021/03/18 08:23:22;;;;;;;6.77;4.27;;;2.50;93.10;;;;;;4425236;32;20147;-70
2021/03/18 08:26:09;;;;;;;4.73;2.53;;;2.60;92.60;;;;;;4423826;32;20547;-69
2021/03/18 08:28:39;;;;;;;4.07;2.20;;;2.40;89.80;;;;;;4423743;32;20199;-69
2021/03/18 08:31:08;;;;;;;4.90;2.30;;;2.40;89.30;;;;;;4423657;32;20473;-70
2021/03/18 08:33:38;;;;;;;3.47;2.23;;;2.40;89.40;;;;;;4423757;32;20504;-71
2021/03/18 08:36:25;;;;;;;3.57;2.20;;;2.30;89.30;;;;;;4427109;32;20177;-70
2021/03/18 08:39:11;;;;;;;3.23;1.87;;;2.30;88.80;;;;;;4426666;32;20150;-70
2021/03/18 08:41:42;;;;;;;2.00;1.80;;;2.30;85.30;;;;;;4427777;32;20138;-71
2021/03/18 08:44:24;;;;;;;3.00;1.50;;;2.50;85.30;;;;;;4426548;32;20150;-70
2021/03/18 08:46:51;;;;;;;2.50;1.80;;;2.70;84.30;;;;;;4427937;32;20185;-70
2021/03/18 08:49:21;;;;;;;4.33;1.80;;;2.70;83.40;;;;;;4427318;32;20201;-72
2021/03/18 08:51:49;;;;;;;2.30;1.70;;;2.80;83.10;;;;;;4412205;32;20217;-71
2021/03/18 08:54:38;;;;;;;2.83;1.90;;;2.80;82.70;;;;;;4426377;32;20138;-71
2021/03/18 08:57:21;;;;;;;2.60;1.93;;;2.90;83.90;;;;;;4417857;32;20236;-71
2021/03/18 08:59:53;;;;;;;2.27;1.97;;;2.90;82.60;;;;;;4426729;32;20155;-71
2021/03/18 09:02:34;;;;;;;1.90;1.60;;;3.00;82.80;;;;;;4427714;32;20171;-70
2021/03/18 09:05:09;;;;;;;3.53;1.87;;;3.20;82.40;;;;;;4426255;32;20173;-71
2021/03/18 09:07:36;;;;;;;2.30;1.60;;;3.10;80.90;;;;;;4427973;32;20204;-72
2021/03/18 09:10:09;;;;;;;2.00;1.50;;;3.30;80.90;;;;;;4426318;32;20175;-72
2021/03/18 09:12:47;;;;;;;2.17;1.60;;;3.40;78.80;;;;;;4428095;32;20200;-71
2021/03/18 09:15:26;;;;;;;2.20;1.70;;;3.60;78.00;;;;;;4427526;32;20215;-71
2021/03/18 09:17:56;;;;;;;2.73;1.93;;;3.80;77.50;;;;;;4425812;32;20158;-70
2021/03/18 09:20:27;;;;;;;4.73;2.30;;;3.90;78.10;;;;;;4426203;32;20159;-70
2021/03/18 09:23:05;;;;;;;4.43;2.30;;;3.90;77.50;;;;;;4426215;32;20216;-71
2021/03/18 09:25:32;;;;;;;5.07;2.50;;;3.90;77.60;;;;;;4425526;32;20167;-71
2021/03/18 09:28:05;;;;;;;3.90;2.70;;;3.80;78.00;;;;;;4425783;32;20386;-71
2021/03/18 09:30:35;;;;;;;6.17;2.70;;;3.80;77.80;;;;;;4426060;32;20466;-71
2021/03/18 09:33:14;;;;;;;6.57;2.77;;;3.50;79.60;;;;;;4426838;32;20529;-71
2021/03/18 09:35:41;;;;;;;3.63;2.50;;;3.50;81.00;;;;;;4426900;32;20154;-70
2021/03/18 09:38:15;;;;;;;4.57;2.30;;;3.30;81.60;;;;;;4425974;32;20150;-71
2021/03/18 09:40:42;;;;;;;4.50;2.30;;;3.10;81.90;;;;;;4426375;32;20212;-70
2021/03/18 09:43:08;;;;;;;3.43;2.33;;;3.30;83.00;;;;;;4425467;32;20174;-71
2021/03/18 09:45:35;;;;;;;4.03;2.13;;;3.30;82.00;;;;;;4425501;32;20465;-71
2021/03/18 09:48:01;;;;;;;3.53;2.20;;;3.10;79.90;;;;;;4425558;32;20200;-72
2021/03/18 09:50:30;;;;;;;3.73;2.10;;;3.30;81.10;;;;;;4427218;32;20405;-73
2021/03/18 09:53:08;;;;;;;3.07;2.20;;;3.50;80.60;;;;;;4425444;32;20418;-74
2021/03/18 09:55:34;;;;;;;4.77;2.40;;;3.30;78.90;;;;;;4425364;32;20669;-73
2021/03/18 09:58:16;;;;;;;6.10;2.60;;;3.30;78.10;;;;;;4425207;32;20455;-73
2021/03/18 10:00:43;;;;;;;3.80;2.50;;;3.30;79.80;;;;;;4424834;32;20200;-73
2021/03/18 10:03:10;;;;;;;4.00;2.20;;;3.40;79.80;;;;;;4425890;32;20140;-74
2021/03/18 10:05:36;;;;;;;3.57;2.30;;;3.30;78.90;;;;;;4426108;32;20190;-73
2021/03/18 10:08:09;;;;;;;4.87;2.30;;;3.00;79.90;;;;;;4426255;32;20440;-72
2021/03/18 10:10:36;;;;;;;4.33;2.73;;;3.10;80.90;;;;;;4426888;32;20509;-74
2021/03/18 10:13:03;;;;;;;6.13;2.33;;;3.20;81.70;;;;;;4424639;32;20166;-75
2021/03/18 10:15:31;;;;;;;4.30;2.17;;;3.10;80.90;;;;;;4425242;32;20147;-74
2021/03/18 10:17:58;;;;;;;3.20;2.20;;;3.50;81.50;;;;;;4425382;32;20155;-74
2021/03/18 10:20:31;;;;;;;3.47;2.10;;;4.10;80.70;;;;;;4423425;32;20210;-74
2021/03/18 10:23:07;;;;;;;2.87;2.00;;;4.60;76.70;;;;;;4425186;32;20223;-72
2021/03/18 10:25:35;;;;;;;3.57;2.00;;;4.20;74.50;;;;;;4424836;32;20162;-74
2021/03/18 10:28:14;;;;;;;3.30;2.10;;;4.20;75.70;;;;;;4425474;32;20143;-73
2021/03/18 10:30:43;;;;;;;2.77;2.10;;;4.10;76.30;;;;;;4425101;32;20493;-72
2021/03/18 10:33:17;;;;;;;3.40;1.90;;;3.90;76.90;;;;;;4426445;32;20478;-71
2021/03/18 10:35:56;;;;;;;4.77;2.60;;;4.00;76.90;;;;;;4424489;32;20149;-70
2021/03/18 10:38:33;;;;;;;3.67;2.10;;;4.10;77.50;;;;;;4426177;32;20256;-70
2021/03/18 10:41:04;;;;;;;3.90;2.03;;;4.20;76.90;;;;;;4426255;32;20425;-71
2021/03/18 10:43:39;;;;;;;4.37;2.20;;;4.00;78.10;;;;;;4426127;32;20396;-69
2021/03/18 10:46:09;;;;;;;2.77;1.97;;;4.10;76.70;;;;;;4425190;32;20169;-72
2021/03/18 10:48:38;;;;;;;4.83;2.27;;;4.10;76.00;;;;;;4424676;32;20231;-71
2021/03/18 10:51:10;;;;;;;4.63;2.43;;;3.80;77.10;;;;;;4426291;32;20413;-73
2021/03/18 10:53:39;;;;;;;3.83;2.43;;;4.00;78.30;;;;;;4426025;32;20175;-73
2021/03/18 10:56:16;;;;;;;5.57;2.03;;;4.20;75.60;;;;;;4425361;32;20169;-73
2021/03/18 10:58:42;;;;;;;3.63;2.10;;;4.50;76.10;;;;;;4423757;32;20152;-72
2021/03/18 11:01:19;;;;;;;3.83;2.20;;;4.90;74.10;;;;;;4425652;32;20151;-73
2021/03/18 11:03:48;;;;;;;3.20;2.00;;;4.50;71.90;;;;;;4425162;32;20181;-73
2021/03/18 11:06:19;;;;;;;3.80;2.27;;;4.40;72.80;;;;;;4424639;32;20221;-74
2021/03/18 11:08:48;;;;;;;4.67;2.30;;;4.40;73.20;;;;;;4425714;32;20163;-73
2021/03/18 11:11:20;;;;;;;4.83;2.20;;;4.00;74.20;;;;;;4424133;32;20196;-73
2021/03/18 11:13:47;;;;;;;3.33;2.17;;;3.80;75.30;;;;;;4426155;32;20151;-73
2021/03/18 11:16:24;;;;;;;3.60;2.80;;;3.80;76.40;;;;;;4425713;32;20524;-73
2021/03/18 11:19:03;;;;;;;5.47;2.60;;;4.10;77.50;;;;;;4423733;32;20159;-72
2021/03/18 11:21:35;;;;;;;6.03;2.83;;;4.00;78.30;;;;;;4424356;32;20170;-73
2021/03/18 11:24:12;;;;;;;3.80;2.47;;;4.20;79.50;;;;;;4424453;32;20168;-73
2021/03/18 11:27:00;;;;;;;6.57;2.47;;;4.10;79.10;;;;;;4423686;32;20155;-73
2021/03/18 11:29:30;;;;;;;3.73;2.27;;;3.80;78.60;;;;;;4424805;32;20152;-73
2021/03/18 11:32:01;;;;;;;3.93;2.33;;;3.80;79.50;;;;;;4425488;32;20143;-73
2021/03/18 11:34:30;;;;;;;3.70;2.47;;;3.50;79.90;;;;;;4424413;32;20147;-73
2021/03/18 11:37:01;;;;;;;3.47;2.20;;;3.70;81.30;;;;;;4425735;32;20150;-73
2021/03/18 11:39:28;;;;;;;4.63;2.20;;;3.70;80.10;;;;;;4425451;32;20171;-72
2021/03/18 11:41:57;;;;;;;4.10;2.20;;;3.50;79.60;;;;;;4425515;32;20163;-72
2021/03/18 11:44:25;;;;;;;4.50;2.50;;;3.70;81.30;;;;;;4424146;32;20144;-74
2021/03/18 11:46:52;;;;;;;3.47;2.53;;;4.10;83.40;;;;;;4423978;32;20148;-73
2021/03/18 11:49:24;;;;;;;5.20;2.87;;;4.30;84.90;;;;;;4423576;32;20517;-72
2021/03/18 11:51:50;;;;;;;4.40;2.67;;;4.50;84.70;;;;;;4426208;32;20461;-74
2021/03/18 11:54:17;;;;;;;5.10;2.70;;;4.70;84.20;;;;;;4425735;32;20149;-73
2021/03/18 11:56:43;;;;;;;3.77;2.67;;;4.90;83.90;;;;;;4425215;32;20207;-73
2021/03/18 11:59:10;;;;;;;3.60;2.67;;;4.70;76.80;;;;;;4425785;32;20181;-72
2021/03/18 12:01:36;;;;;;;2.97;2.30;;;5.00;77.80;;;;;;4424656;32;20196;-71
2021/03/18 12:04:04;;;;;;;3.87;2.37;;;4.70;75.80;;;;;;4424952;32;20220;-72
2021/03/18 12:06:31;;;;;;;4.93;2.60;;;4.50;79.20;;;;;;4424328;32;20167;-71
2021/03/18 12:08:57;;;;;;;4.90;2.87;;;4.70;80.20;;;;;;4425751;32;20195;-72
2021/03/18 12:11:25;;;;;;;5.63;3.20;;;4.80;80.20;;;;;;4428580;32;20236;-71
2021/03/18 12:13:51;;;;;;;8.83;3.40;;;3.90;86.60;;;;;;4428799;32;20240;-72
2021/03/18 12:16:18;;;;;;;6.20;3.90;;;3.30;92.90;;;;;;4428833;32;20144;-72
2021/03/18 12:18:45;;;;;;;7.50;3.60;;;2.70;98.20;;;;;;4428881;32;20186;-72
2021/03/18 12:21:12;;;;;;;5.03;3.50;;;2.40;99.90;;;;;;4428433;32;20204;-70
2021/03/18 12:23:39;;;;;;;4.90;2.77;;;2.60;99.90;;;;;;4426818;32;20403;-71
2021/03/18 12:26:05;;;;;;;5.53;3.03;;;2.50;99.90;;;;;;4426695;32;20245;-71
2021/03/18 12:28:32;;;;;;;4.13;3.20;;;2.70;99.90;;;;;;4428171;32;20196;-71
2021/03/18 12:30:58;;;;;;;3.90;2.83;;;2.90;99.90;;;;;;4426722;32;20135;-72
2021/03/18 12:33:25;;;;;;;4.67;3.20;;;3.00;99.90;;;;;;4426821;32;20231;-73
2021/03/18 12:35:52;;;;;;;5.40;3.37;;;2.90;99.90;;;;;;4426430;32;20142;-72
2021/03/18 12:38:21;;;;;;;4.83;3.57;;;2.80;99.90;;;;;;4426167;32;20202;-73
2021/03/18 12:40:51;;;;;;;4.23;3.03;;;3.00;99.90;;;;;;4427475;32;20139;-72
2021/03/18 12:43:19;;;;;;;3.57;2.70;;;4.10;99.90;;;;;;4427991;32;20139;-74
2021/03/18 12:45:46;;;;;;;4.10;2.70;;;5.70;96.40;;;;;;4426486;32;20139;-72
2021/03/18 12:48:13;;;;;;;4.13;2.90;;;7.50;91.40;;;;;;4426379;32;20145;-73
2021/03/18 12:50:40;;;;;;;4.50;3.13;;;8.90;83.00;;;;;;4425854;32;20165;-72
2021/03/18 12:53:07;;;;;;;3.67;2.77;;;9.50;77.60;;;;;;4426744;32;20160;-73
2021/03/18 12:55:34;;;;;;;3.93;2.63;;;10.10;71.40;;;;;;4426325;32;20200;-73
2021/03/18 12:58:01;;;;;;;4.23;2.60;;;11.70;65.40;;;;;;4427761;32;20158;-73
2021/03/18 13:00:31;;;;;;;4.03;2.60;;;12.60;59.30;;;;;;4427869;32;20174;-74
2021/03/18 13:02:57;;;;;;;4.73;2.77;;;11.30;58.70;;;;;;4425773;32;20477;-73
2021/03/18 13:05:24;;;;;;;5.03;2.90;;;11.10;58.90;;;;;;4427793;32;20164;-72
2021/03/18 13:07:51;;;;;;;3.93;2.67;;;10.90;59.80;;;;;;4425623;32;20147;-73
2021/03/18 13:10:18;;;;;;;4.40;3.00;;;9.60;59.90;;;;;;4427741;32;20162;-73